Time;durP1;ratioP1;P1;durP2;ratioP2;P2;SDS_P1;SDS_P2;PMS_P1;PMS_P2;Temp;Humidity;BMP_temperature;BMP_pressure;BME280_temperature;BME280_humidity;BME280_pressure;Samples;Min_cycle;Max_cycle;Signal;HPM_P1;HPM_P2
2022/11/17 00:00:24;;;;;;;7.25;4.05;;;9.30;99.90;;;;;;5054802;28;20473;-72
2022/11/17 00:02:50;;;;;;;6.13;4.13;;;9.30;99.90;;;;;;5072158;28;20032;-73
2022/11/17 00:05:16;;;;;;;8.23;4.70;;;9.30;99.90;;;;;;5072659;28;20477;-73
2022/11/17 00:07:44;;;;;;;7.45;4.68;;;9.20;99.90;;;;;;5072660;28;20114;-71
2022/11/17 00:10:13;;;;;;;6.28;4.22;;;9.20;99.90;;;;;;5072504;28;20032;-73
2022/11/17 00:15:23;;;;;;;8.50;5.18;;;9.10;99.90;;;;;;5073112;28;20036;-72
2022/11/17 00:21:17;;;;;;;9.52;5.43;;;9.00;99.90;;;;;;5072721;28;20048;-72
2022/11/17 00:23:22;;;;;;;10.23;5.10;;;9.20;99.90;;;;;;5072545;28;20331;-74
2022/11/17 00:25:47;;;;;;;7.80;4.70;;;9.00;99.90;;;;;;5072284;28;20098;-73
2022/11/17 00:28:13;;;;;;;8.85;5.30;;;9.10;99.90;;;;;;5072211;28;20074;-72
2022/11/17 00:36:07;;;;;;;9.80;5.50;;;9.10;99.90;;;;;;5072281;28;20347;-73
2022/11/17 00:38:33;;;;;;;8.48;5.35;;;9.10;99.90;;;;;;5072024;28;20037;-73
2022/11/17 00:40:59;;;;;;;9.30;5.78;;;9.10;99.90;;;;;;5071936;28;20488;-74
2022/11/17 00:43:24;;;;;;;9.07;5.47;;;9.00;99.90;;;;;;5071546;28;20122;-74
2022/11/17 00:45:50;;;;;;;9.02;5.65;;;8.90;99.90;;;;;;5071857;28;20029;-74
2022/11/17 00:48:15;;;;;;;9.07;5.43;;;8.90;99.90;;;;;;5072187;28;20021;-74
2022/11/17 00:50:41;;;;;;;10.10;5.90;;;8.90;99.90;;;;;;5071692;28;20078;-73
2022/11/17 00:53:07;;;;;;;9.23;5.93;;;8.90;99.90;;;;;;5071895;28;20462;-73
2022/11/17 00:55:33;;;;;;;10.10;5.68;;;8.90;99.90;;;;;;5071734;28;20111;-72
2022/11/17 00:57:58;;;;;;;10.00;5.90;;;8.80;99.90;;;;;;5071639;28;20124;-73
2022/11/17 01:00:24;;;;;;;9.13;5.55;;;9.00;99.90;;;;;;5071604;28;20044;-73
2022/11/17 01:02:50;;;;;;;8.10;5.22;;;8.90;99.90;;;;;;5072078;28;20028;-73
2022/11/17 01:05:16;;;;;;;8.80;5.78;;;8.90;99.90;;;;;;5071746;28;20465;-73
2022/11/17 01:07:41;;;;;;;8.32;5.50;;;8.90;99.90;;;;;;5071681;28;20430;-74
2022/11/17 01:10:07;;;;;;;8.32;5.22;;;8.90;99.90;;;;;;5071316;28;20473;-73
2022/11/17 01:12:33;;;;;;;8.60;5.80;;;8.90;99.90;;;;;;5071313;28;20028;-72
2022/11/17 01:14:59;;;;;;;8.48;5.63;;;9.00;99.90;;;;;;5071832;28;20336;-73
2022/11/17 01:17:24;;;;;;;7.85;5.68;;;8.90;99.90;;;;;;5071415;28;20040;-72
2022/11/17 01:19:50;;;;;;;9.65;5.82;;;8.90;99.90;;;;;;5071207;28;20504;-73
2022/11/17 01:22:16;;;;;;;9.23;5.70;;;8.80;99.90;;;;;;5071441;28;20465;-73
2022/11/17 01:24:42;;;;;;;8.73;5.13;;;8.80;99.90;;;;;;5070913;28;20052;-74
2022/11/17 01:27:08;;;;;;;11.00;6.05;;;8.80;99.90;;;;;;5071498;28;20060;-72
2022/11/17 01:29:33;;;;;;;9.25;5.88;;;8.80;99.90;;;;;;5071235;28;20032;-71
2022/11/17 01:31:59;;;;;;;9.70;6.15;;;8.70;99.90;;;;;;5071325;28;20032;-73
2022/11/17 01:34:25;;;;;;;9.00;5.82;;;8.60;99.90;;;;;;5053166;28;20519;-72
2022/11/17 01:39:35;;;;;;;11.10;6.35;;;8.70;99.90;;;;;;5070910;28;20135;-74
2022/11/17 01:42:10;;;;;;;9.82;5.53;;;8.70;99.90;;;;;;5071102;28;20749;-74
2022/11/17 01:44:56;;;;;;;10.57;5.70;;;8.70;99.90;;;;;;5069738;28;20482;-73
2022/11/17 01:47:21;;;;;;;8.13;5.07;;;8.60;99.90;;;;;;5070765;28;20494;-73
2022/11/17 01:49:58;;;;;;;10.07;5.78;;;8.50;99.90;;;;;;5070762;28;20121;-74
2022/11/17 01:52:24;;;;;;;12.30;6.38;;;8.50;99.90;;;;;;5070728;28;20031;-74
2022/11/17 01:54:52;;;;;;;9.85;5.97;;;8.50;99.90;;;;;;5071231;28;20024;-73
2022/11/17 01:57:48;;;;;;;11.50;6.30;;;8.50;99.90;;;;;;5071211;28;20049;-71
2022/11/17 02:00:14;;;;;;;12.23;5.97;;;8.50;99.90;;;;;;5064802;28;20040;-70
2022/11/17 02:02:42;;;;;;;10.93;6.10;;;8.60;99.90;;;;;;5069489;28;20039;-74
2022/11/17 02:05:29;;;;;;;9.50;4.72;;;8.50;99.90;;;;;;5052806;28;20028;-73
2022/11/17 02:07:56;;;;;;;11.67;5.10;;;8.50;99.90;;;;;;5070547;28;20172;-73
2022/11/17 02:10:21;;;;;;;9.73;4.53;;;8.50;99.90;;;;;;5070615;28;20257;-73
2022/11/17 02:12:48;;;;;;;6.22;4.30;;;8.40;99.90;;;;;;5070751;28;20470;-73
2022/11/17 02:15:14;;;;;;;6.00;4.05;;;8.30;99.90;;;;;;5053311;28;20198;-72
2022/11/17 02:17:41;;;;;;;8.35;4.68;;;8.40;99.90;;;;;;5070546;28;20112;-74
2022/11/17 02:20:30;;;;;;;7.03;4.43;;;8.50;99.90;;;;;;5070543;28;20075;-72
2022/11/17 02:23:24;;;;;;;8.27;5.00;;;8.40;99.90;;;;;;5070231;28;20034;-73
2022/11/17 02:26:22;;;;;;;7.05;4.25;;;8.40;99.90;;;;;;5070420;28;20279;-73
2022/11/17 02:29:39;;;;;;;7.82;4.80;;;8.40;99.90;;;;;;5052410;28;20031;-74
2022/11/17 02:32:42;;;;;;;9.80;5.05;;;8.50;99.90;;;;;;4969395;28;20481;-74
2022/11/17 02:35:23;;;;;;;14.32;5.40;;;8.50;99.90;;;;;;5072594;28;20048;-73
2022/11/17 02:37:58;;;;;;;8.45;5.22;;;8.50;99.90;;;;;;5072585;28;20402;-73
2022/11/17 02:40:29;;;;;;;9.20;4.93;;;8.40;99.90;;;;;;5090509;28;20108;-74
2022/11/17 02:45:52;;;;;;;8.32;5.10;;;8.40;99.90;;;;;;5070518;28;20332;-73
2022/11/17 02:48:32;;;;;;;9.10;5.20;;;8.40;99.90;;;;;;5070864;28;20377;-72
2022/11/17 02:50:59;;;;;;;7.15;4.32;;;8.30;99.90;;;;;;5070120;28;20036;-73
2022/11/17 02:53:27;;;;;;;7.05;4.60;;;8.40;99.90;;;;;;5070080;28;20390;-73
2022/11/17 02:55:53;;;;;;;8.73;4.72;;;8.40;99.90;;;;;;5070288;28;20060;-73
2022/11/17 02:58:20;;;;;;;8.05;4.65;;;8.40;99.90;;;;;;5072276;28;20035;-74
2022/11/17 03:00:56;;;;;;;8.50;4.68;;;8.40;99.90;;;;;;5073897;28;20478;-74
2022/11/17 03:03:42;;;;;;;10.90;4.63;;;8.50;99.90;;;;;;5074359;28;20083;-72
2022/11/17 03:06:10;;;;;;;9.93;4.93;;;8.40;99.90;;;;;;5073964;28;20032;-73
2022/11/17 03:08:54;;;;;;;10.82;5.00;;;8.40;99.90;;;;;;5073834;28;20032;-74
2022/11/17 03:11:26;;;;;;;8.48;4.47;;;8.40;99.90;;;;;;5073718;28;20044;-75
2022/11/17 03:14:14;;;;;;;7.82;4.72;;;8.40;99.90;;;;;;5074065;28;20032;-72
2022/11/17 03:16:54;;;;;;;7.18;4.35;;;8.20;99.90;;;;;;5073703;28;20120;-75
2022/11/17 03:19:34;;;;;;;8.93;5.13;;;8.40;99.90;;;;;;5072659;28;20030;-73
2022/11/17 03:22:14;;;;;;;9.57;5.35;;;8.40;99.90;;;;;;5073487;28;20047;-74
2022/11/17 03:24:53;;;;;;;9.77;5.53;;;8.30;99.90;;;;;;5073611;28;20107;-74
2022/11/17 03:27:36;;;;;;;9.23;5.43;;;8.30;99.90;;;;;;5073957;28;20516;-74
2022/11/17 03:30:07;;;;;;;9.75;6.13;;;8.30;99.90;;;;;;5072822;28;20043;-73
2022/11/17 03:32:39;;;;;;;10.20;5.80;;;8.30;99.90;;;;;;5073712;28;20109;-74
2022/11/17 03:35:11;;;;;;;10.60;5.43;;;8.30;99.90;;;;;;5073535;28;20090;-73
2022/11/17 03:37:42;;;;;;;8.75;5.45;;;8.30;99.90;;;;;;5073656;28;20458;-72
2022/11/17 03:40:10;;;;;;;7.75;5.38;;;8.30;99.90;;;;;;5073404;28;20025;-73
2022/11/17 03:42:40;;;;;;;12.57;5.47;;;8.40;99.90;;;;;;5080322;28;20494;-73
2022/11/17 03:45:30;;;;;;;11.77;6.55;;;8.30;99.90;;;;;;5093939;28;20024;-73
2022/11/17 03:48:18;;;;;;;11.98;6.15;;;8.30;99.90;;;;;;5093517;28;20036;-73
2022/11/17 03:50:50;;;;;;;;;;;8.30;99.90;;;;;;5093917;28;20495;-74
2022/11/17 03:53:16;;;;;;;11.90;6.75;;;8.20;99.90;;;;;;5093333;28;19911;-73
2022/11/17 03:56:00;;;;;;;13.40;7.20;;;8.20;99.90;;;;;;5093371;28;20120;-74
2022/11/17 03:58:30;;;;;;;13.63;7.70;;;8.20;99.90;;;;;;5093211;28;20145;-73
2022/11/17 04:00:59;;;;;;;14.50;7.30;;;8.30;99.90;;;;;;5075501;28;20032;-75
2022/11/17 04:03:29;;;;;;;14.02;7.10;;;8.20;99.90;;;;;;5074961;28;20020;-73
2022/11/17 04:05:55;;;;;;;12.70;7.38;;;8.30;99.90;;;;;;5093517;28;20461;-74
2022/11/17 04:08:24;;;;;;;10.85;6.80;;;8.30;99.90;;;;;;5092793;28;20032;-74
2022/11/17 04:16:18;;;;;;;12.23;6.97;;;8.20;99.90;;;;;;5092935;28;20043;-73
2022/11/17 04:18:44;;;;;;;10.73;6.07;;;8.20;99.90;;;;;;5092756;28;20036;-73
2022/11/17 04:21:10;;;;;;;12.55;7.28;;;8.10;99.90;;;;;;5093009;28;20020;-73
2022/11/17 04:23:35;;;;;;;13.85;7.70;;;8.20;99.90;;;;;;5092495;28;20036;-73
2022/11/17 04:28:48;;;;;;;11.50;7.43;;;7.90;99.90;;;;;;5092794;28;20097;-74
2022/11/17 04:31:18;;;;;;;11.63;7.25;;;8.10;99.90;;;;;;5092617;28;20039;-73
2022/11/17 04:34:02;;;;;;;11.68;7.22;;;8.10;99.90;;;;;;5074712;28;20458;-74
2022/11/17 04:36:33;;;;;;;13.75;7.15;;;8.20;99.90;;;;;;5092408;28;20031;-74
2022/11/17 04:38:59;;;;;;;9.60;6.22;;;8.20;99.90;;;;;;5093017;28;20454;-73
2022/11/17 04:44:14;;;;;;;10.88;7.10;;;8.20;99.90;;;;;;5092738;28;20086;-74
2022/11/17 04:46:43;;;;;;;13.45;6.75;;;8.20;99.90;;;;;;5092079;28;20024;-74
2022/11/17 04:49:09;;;;;;;12.73;7.60;;;8.20;99.90;;;;;;5092030;28;20020;-73
2022/11/17 04:51:35;;;;;;;14.02;6.97;;;8.10;99.90;;;;;;5074122;28;20070;-73
2022/11/17 04:54:02;;;;;;;15.15;7.32;;;8.20;99.90;;;;;;5074579;28;20043;-72
2022/11/17 04:56:28;;;;;;;10.60;7.05;;;8.10;99.90;;;;;;5092034;28;20351;-73
2022/11/17 04:58:54;;;;;;;11.63;7.00;;;8.10;99.90;;;;;;5091877;28;20090;-74
2022/11/17 05:01:21;;;;;;;12.85;8.18;;;8.10;99.90;;;;;;5092007;28;20039;-72
2022/11/17 05:03:49;;;;;;;14.57;8.52;;;8.00;99.90;;;;;;5091731;28;20434;-73
2022/11/17 05:06:19;;;;;;;12.20;7.88;;;8.00;99.90;;;;;;5092835;28;20024;-75
2022/11/17 05:08:45;;;;;;;12.07;6.95;;;8.10;99.90;;;;;;5091910;28;20572;-72
2022/11/17 05:13:57;;;;;;;12.90;7.28;;;8.00;99.90;;;;;;5091647;28;20086;-73
2022/11/17 05:19:11;;;;;;;14.25;6.82;;;7.90;99.90;;;;;;5091813;28;20039;-74
2022/11/17 05:21:37;;;;;;;13.77;7.05;;;8.00;99.90;;;;;;5090790;28;20016;-74
2022/11/17 05:24:03;;;;;;;13.07;7.15;;;8.00;99.90;;;;;;5073998;28;20523;-74
2022/11/17 05:26:31;;;;;;;14.43;7.38;;;8.00;99.90;;;;;;5092035;28;20032;-74
2022/11/17 05:28:58;;;;;;;;;;;8.00;99.90;;;;;;5091890;28;20043;-74
2022/11/17 05:31:25;;;;;;;14.05;8.20;;;7.90;99.90;;;;;;5073575;28;20380;-75
2022/11/17 05:33:51;;;;;;;11.85;6.45;;;8.00;99.90;;;;;;5091429;28;20450;-75
2022/11/17 05:36:18;;;;;;;12.57;7.22;;;8.00;99.90;;;;;;5091809;28;20032;-75
2022/11/17 05:38:45;;;;;;;11.85;6.88;;;8.10;99.90;;;;;;5073334;28;20466;-74
2022/11/17 05:41:12;;;;;;;11.18;6.25;;;7.90;99.90;;;;;;5073335;28;20487;-72
2022/11/17 05:43:38;;;;;;;12.80;7.30;;;8.00;99.90;;;;;;5090675;28;20101;-73
2022/11/17 05:46:03;;;;;;;13.98;8.15;;;8.00;99.90;;;;;;5073239;28;20024;-74
2022/11/17 05:48:29;;;;;;;16.25;8.40;;;7.90;99.90;;;;;;5073108;28;20031;-73
2022/11/17 05:50:55;;;;;;;15.98;8.52;;;7.90;99.90;;;;;;5091611;28;20114;-74
2022/11/17 05:53:22;;;;;;;14.50;8.48;;;7.90;99.90;;;;;;5091343;28;20524;-74
2022/11/17 05:55:49;;;;;;;18.33;9.82;;;8.00;99.90;;;;;;5091144;28;20115;-74
2022/11/17 05:58:24;;;;;;;16.05;8.85;;;8.00;99.90;;;;;;5092443;28;20046;-73
2022/11/17 06:00:51;;;;;;;21.02;10.48;;;7.90;99.90;;;;;;5091879;28;20039;-73
2022/11/17 06:03:33;;;;;;;20.83;10.98;;;7.90;99.90;;;;;;5091135;28;20081;-72
2022/11/17 06:05:59;;;;;;;24.48;12.40;;;7.80;99.90;;;;;;5073461;28;20082;-73
2022/11/17 06:08:25;;;;;;;24.35;11.88;;;7.80;99.90;;;;;;5073623;28;20044;-74
2022/11/17 06:10:51;;;;;;;17.70;9.68;;;7.80;99.90;;;;;;5072792;28;20043;-72
2022/11/17 06:13:20;;;;;;;21.05;10.50;;;7.90;99.90;;;;;;5090934;28;20020;-75
2022/11/17 06:15:46;;;;;;;19.92;10.43;;;7.90;99.90;;;;;;5091359;28;20059;-72
2022/11/17 06:18:16;;;;;;;16.73;8.77;;;7.90;99.90;;;;;;5083055;28;20454;-73
2022/11/17 06:20:48;;;;;;;18.83;9.82;;;7.90;99.90;;;;;;5071134;28;20048;-76
2022/11/17 06:23:16;;;;;;;16.70;9.88;;;7.80;99.90;;;;;;5070906;28;20171;-76
2022/11/17 06:25:42;;;;;;;20.83;11.20;;;7.80;99.90;;;;;;5070829;28;20476;-74
2022/11/17 06:28:13;;;;;;;19.40;10.55;;;7.80;99.90;;;;;;5070704;28;20040;-75
2022/11/17 06:30:40;;;;;;;15.05;9.25;;;7.80;99.90;;;;;;5070558;28;20351;-74
2022/11/17 06:33:13;;;;;;;16.80;10.07;;;7.90;99.90;;;;;;5074669;28;20439;-74
2022/11/17 06:35:40;;;;;;;21.90;12.02;;;7.80;99.90;;;;;;5057231;28;20098;-75
2022/11/17 06:38:06;;;;;;;25.55;12.75;;;7.90;99.90;;;;;;5074932;28;20024;-75
2022/11/17 06:40:31;;;;;;;25.27;12.75;;;7.80;99.90;;;;;;5073680;28;20036;-76
2022/11/17 06:43:07;;;;;;;20.90;10.80;;;7.90;99.90;;;;;;5070241;28;20474;-73
2022/11/17 06:45:34;;;;;;;19.33;11.50;;;7.90;99.90;;;;;;5054575;28;20027;-73
2022/11/17 06:48:00;;;;;;;22.38;12.15;;;7.80;99.90;;;;;;5070781;28;20502;-74
2022/11/17 06:50:25;;;;;;;24.33;13.85;;;7.80;99.90;;;;;;5054761;28;20225;-74
2022/11/17 06:52:55;;;;;;;23.70;12.77;;;7.80;99.90;;;;;;5054446;28;20029;-75
2022/11/17 06:55:21;;;;;;;18.25;10.82;;;7.70;99.90;;;;;;5054694;28;20083;-73
2022/11/17 06:57:46;;;;;;;21.60;11.13;;;7.70;99.90;;;;;;5054533;28;20040;-74
2022/11/17 07:00:13;;;;;;;17.25;10.70;;;7.80;99.90;;;;;;5054836;28;20030;-74
2022/11/17 07:02:38;;;;;;;20.92;10.88;;;7.80;99.90;;;;;;5054236;28;20384;-74
2022/11/17 07:05:04;;;;;;;20.67;11.07;;;7.70;99.90;;;;;;5054006;28;20120;-73
2022/11/17 07:07:30;;;;;;;17.30;10.93;;;7.70;99.90;;;;;;5054075;28;20041;-74
2022/11/17 07:09:56;;;;;;;20.15;11.52;;;7.70;99.90;;;;;;5053949;28;20045;-73
2022/11/17 07:12:21;;;;;;;19.92;10.90;;;7.70;99.90;;;;;;5054616;28;20324;-73
2022/11/17 07:14:47;;;;;;;18.08;10.55;;;7.70;99.90;;;;;;5052810;28;20025;-74
2022/11/17 07:17:13;;;;;;;18.85;11.05;;;7.70;99.90;;;;;;5054201;28;20029;-75
2022/11/17 07:19:38;;;;;;;19.83;11.23;;;7.60;99.90;;;;;;5053921;28;20029;-74
2022/11/17 07:22:04;;;;;;;23.02;12.13;;;7.60;99.90;;;;;;5053781;28;20108;-75
2022/11/17 07:24:29;;;;;;;23.40;11.55;;;7.70;99.90;;;;;;5054015;28;20083;-75
2022/11/17 07:26:55;;;;;;;23.65;11.40;;;7.70;99.90;;;;;;5054377;28;20482;-74
2022/11/17 07:29:21;;;;;;;19.50;11.73;;;7.60;99.90;;;;;;5071729;28;20273;-74
2022/11/17 07:31:46;;;;;;;18.27;10.50;;;7.60;99.90;;;;;;5053767;28;20433;-75
2022/11/17 07:34:12;;;;;;;21.40;12.02;;;7.60;99.90;;;;;;5052520;28;20024;-73
2022/11/17 07:36:38;;;;;;;21.15;12.07;;;7.50;99.90;;;;;;5053687;28;20021;-73
2022/11/17 07:39:06;;;;;;;21.80;11.23;;;7.40;99.90;;;;;;5054209;28;20108;-73
2022/11/17 07:41:32;;;;;;;19.55;11.82;;;7.50;99.90;;;;;;5054389;28;20115;-73
2022/11/17 07:43:58;;;;;;;19.88;11.15;;;7.50;99.90;;;;;;5070790;28;20168;-74
2022/11/17 07:46:24;;;;;;;17.70;9.85;;;7.50;99.90;;;;;;5073332;28;20028;-73
2022/11/17 07:48:53;;;;;;;18.48;10.10;;;7.50;99.90;;;;;;5073358;28;20107;-74
2022/11/17 07:51:19;;;;;;;17.75;10.30;;;7.40;99.90;;;;;;5073592;28;20434;-75
2022/11/17 07:53:46;;;;;;;18.58;10.32;;;7.40;99.90;;;;;;5073316;28;20545;-74
2022/11/17 07:56:12;;;;;;;17.80;9.30;;;7.40;99.90;;;;;;5075700;28;20044;-73
2022/11/17 07:58:38;;;;;;;17.55;9.95;;;7.40;99.90;;;;;;5073130;28;20028;-74
2022/11/17 08:01:15;;;;;;;14.23;9.00;;;7.50;99.90;;;;;;5055224;28;20094;-73
2022/11/17 08:03:44;;;;;;;15.70;9.25;;;7.30;99.90;;;;;;5072757;28;20029;-73
2022/11/17 08:06:10;;;;;;;20.23;9.40;;;7.30;99.90;;;;;;5073541;28;20074;-74
2022/11/17 08:08:36;;;;;;;18.88;9.77;;;7.30;99.90;;;;;;5055052;28;20025;-74
2022/11/17 08:11:04;;;;;;;16.58;9.82;;;7.30;99.90;;;;;;5071883;28;20354;-72
2022/11/17 08:13:30;;;;;;;;;;;7.30;99.90;;;;;;5056115;28;20039;-73
2022/11/17 08:15:56;;;;;;;13.85;8.18;;;7.30;99.90;;;;;;5072853;28;20253;-72
2022/11/17 08:18:22;;;;;;;15.43;9.25;;;7.30;99.90;;;;;;5073822;28;20032;-73
2022/11/17 08:20:48;;;;;;;17.42;9.13;;;7.30;99.90;;;;;;5072906;28;20024;-73
2022/11/17 08:23:13;;;;;;;15.57;7.95;;;7.20;99.90;;;;;;5072738;28;20044;-74
2022/11/17 08:25:40;;;;;;;14.70;8.70;;;7.20;99.90;;;;;;5071807;28;20041;-74
2022/11/17 08:28:06;;;;;;;14.77;7.82;;;7.20;99.90;;;;;;5073377;28;20024;-75
2022/11/17 08:30:34;;;;;;;16.23;8.55;;;7.20;99.90;;;;;;5054838;28;20469;-74
2022/11/17 08:33:01;;;;;;;17.52;8.48;;;7.10;99.90;;;;;;5073142;28;20085;-75
2022/11/17 08:35:27;;;;;;;14.68;7.55;;;7.20;99.90;;;;;;5072657;28;20040;-73
2022/11/17 08:37:53;;;;;;;14.68;7.90;;;7.30;99.90;;;;;;5054809;28;20470;-73
2022/11/17 08:40:20;;;;;;;18.10;8.50;;;7.10;99.90;;;;;;5072550;28;20056;-75
2022/11/17 08:42:50;;;;;;;16.10;8.60;;;7.00;99.90;;;;;;5072023;28;20124;-74
2022/11/17 08:45:16;;;;;;;11.88;7.75;;;7.10;99.90;;;;;;5072587;28;20031;-74
2022/11/17 08:47:42;;;;;;;14.27;8.68;;;7.00;99.90;;;;;;5054539;28;20032;-73
2022/11/17 08:50:08;;;;;;;13.73;7.82;;;7.10;99.90;;;;;;5072128;28;20032;-72
2022/11/17 08:52:34;;;;;;;13.15;7.05;;;7.10;99.90;;;;;;5072052;28;20366;-72
2022/11/17 08:54:59;;;;;;;11.52;6.93;;;7.10;99.90;;;;;;5070994;28;20031;-73
2022/11/17 08:57:25;;;;;;;13.55;7.45;;;7.10;99.90;;;;;;5070737;28;20017;-72
2022/11/17 08:59:50;;;;;;;12.77;7.25;;;7.10;99.90;;;;;;5072779;28;20017;-74
2022/11/17 09:02:16;;;;;;;11.32;7.03;;;7.10;99.90;;;;;;5071990;28;20388;-74
2022/11/17 09:04:42;;;;;;;11.55;6.50;;;7.20;99.90;;;;;;5071753;28;20040;-73
2022/11/17 09:07:07;;;;;;;10.25;6.38;;;7.10;99.90;;;;;;5071488;28;20492;-73
2022/11/17 09:09:33;;;;;;;10.52;6.07;;;7.10;99.90;;;;;;5070487;28;20047;-72
2022/11/17 09:11:59;;;;;;;11.48;5.68;;;7.10;99.90;;;;;;5072143;28;20021;-74
2022/11/17 09:14:25;;;;;;;10.45;4.93;;;7.20;99.90;;;;;;5070646;28;20031;-72
2022/11/17 09:16:52;;;;;;;11.20;6.38;;;7.30;99.90;;;;;;5071678;28;20119;-73
2022/11/17 09:19:18;;;;;;;9.07;5.78;;;7.20;99.90;;;;;;5071768;28;20058;-73
2022/11/17 09:21:44;;;;;;;13.90;6.20;;;7.30;99.90;;;;;;5053720;28;20310;-74
2022/11/17 09:24:10;;;;;;;10.30;5.18;;;7.30;99.90;;;;;;5072035;28;20035;-73
2022/11/17 09:26:39;;;;;;;8.30;5.03;;;7.30;99.90;;;;;;5054504;28;20035;-73
2022/11/17 09:29:06;;;;;;;12.75;5.38;;;7.40;99.90;;;;;;5072259;28;20108;-73
2022/11/17 09:31:33;;;;;;;7.73;4.70;;;7.30;99.90;;;;;;5071984;28;20052;-73
2022/11/17 09:33:59;;;;;;;7.60;4.80;;;7.20;99.90;;;;;;5071281;28;20028;-74
2022/11/17 09:36:24;;;;;;;7.78;4.40;;;7.30;99.90;;;;;;5071142;28;20690;-73
2022/11/17 09:38:50;;;;;;;7.72;4.80;;;7.30;99.90;;;;;;5071563;28;20013;-72
2022/11/17 09:41:25;;;;;;;8.77;5.35;;;7.30;99.90;;;;;;5071122;28;20029;-73
2022/11/17 09:44:01;;;;;;;10.20;6.05;;;7.30;99.90;;;;;;5053257;28;20362;-73
2022/11/17 09:46:50;;;;;;;12.45;6.95;;;7.30;99.90;;;;;;5053275;28;20063;-73
2022/11/17 09:49:25;;;;;;;11.52;6.78;;;7.40;99.90;;;;;;5053263;28;20033;-74
2022/11/17 09:51:55;;;;;;;11.43;6.72;;;7.40;99.90;;;;;;5070986;28;20039;-74
2022/11/17 09:54:41;;;;;;;13.68;8.15;;;7.40;99.90;;;;;;5053827;28;20466;-74
2022/11/17 09:57:20;;;;;;;15.15;7.95;;;7.40;99.90;;;;;;5071171;28;20136;-73
2022/11/17 09:59:55;;;;;;;15.63;9.23;;;7.40;99.90;;;;;;5071035;28;20040;-73
2022/11/17 10:02:20;;;;;;;14.73;8.98;;;7.50;99.90;;;;;;5070891;28;20120;-76
2022/11/17 10:04:47;;;;;;;15.07;9.75;;;7.40;99.90;;;;;;5071029;28;20123;-74
2022/11/17 10:07:12;;;;;;;17.70;9.85;;;7.40;99.90;;;;;;5071051;28;20111;-74
2022/11/17 10:09:43;;;;;;;20.70;11.27;;;7.50;99.90;;;;;;5070866;28;20100;-73
2022/11/17 10:12:19;;;;;;;16.33;10.30;;;7.50;99.90;;;;;;5071257;28;20021;-72
2022/11/17 10:14:47;;;;;;;18.95;11.45;;;7.50;99.90;;;;;;5053345;28;20399;-75
2022/11/17 10:17:13;;;;;;;23.45;12.10;;;7.60;99.90;;;;;;5071004;28;20025;-74
2022/11/17 10:19:39;;;;;;;23.27;12.25;;;7.60;99.90;;;;;;5070919;28;20036;-73
2022/11/17 10:22:05;;;;;;;18.67;11.57;;;7.50;99.90;;;;;;5070952;28;20503;-74
2022/11/17 10:24:34;;;;;;;22.45;13.15;;;7.60;99.90;;;;;;5070555;28;20454;-73
2022/11/17 10:27:03;;;;;;;28.58;14.05;;;7.50;99.90;;;;;;5071336;28;20012;-73
2022/11/17 10:29:29;;;;;;;21.08;12.75;;;7.60;99.90;;;;;;5070725;28;20616;-73
2022/11/17 10:31:55;;;;;;;21.27;12.88;;;7.60;99.90;;;;;;5070728;28;20056;-73
2022/11/17 10:34:38;;;;;;;20.58;11.55;;;7.60;99.90;;;;;;5069660;28;20052;-74
2022/11/17 10:37:14;;;;;;;15.32;9.07;;;7.60;99.90;;;;;;5069590;28;20033;-75
2022/11/17 10:39:41;;;;;;;14.48;7.75;;;7.60;99.90;;;;;;5070417;28;20358;-73
2022/11/17 10:42:21;;;;;;;14.18;7.90;;;7.60;99.90;;;;;;5071326;28;20425;-74
2022/11/17 10:44:51;;;;;;;11.85;6.55;;;7.60;99.90;;;;;;5071164;28;20037;-74
2022/11/17 10:47:39;;;;;;;10.48;5.78;;;7.60;99.90;;;;;;5070782;28;20108;-72
2022/11/17 10:50:17;;;;;;;;;;;7.50;99.90;;;;;;5072064;28;20498;-73
2022/11/17 10:52:43;;;;;;;7.43;5.00;;;7.60;99.90;;;;;;5069148;28;19909;-74
2022/11/17 10:55:30;;;;;;;8.50;4.47;;;7.70;99.90;;;;;;5069515;28;20340;-74
2022/11/17 10:57:58;;;;;;;10.68;4.95;;;7.70;99.90;;;;;;5070426;28;20047;-73
2022/11/17 11:00:26;;;;;;;9.05;4.55;;;7.70;99.90;;;;;;5052848;28;20020;-74
2022/11/17 11:03:06;;;;;;;9.50;4.20;;;7.60;99.90;;;;;;5070861;28;20108;-74
2022/11/17 11:05:31;;;;;;;8.07;4.63;;;7.60;99.90;;;;;;5070126;28;20115;-73
2022/11/17 11:08:21;;;;;;;13.00;5.80;;;7.60;99.90;;;;;;5070241;28;20033;-72
2022/11/17 11:10:50;;;;;;;8.15;4.00;;;7.60;99.90;;;;;;5071812;28;20051;-72
2022/11/17 11:13:32;;;;;;;10.88;4.22;;;7.60;99.90;;;;;;5054063;28;20043;-74
2022/11/17 11:15:58;;;;;;;6.85;3.60;;;7.70;99.90;;;;;;5070927;28;20036;-73
2022/11/17 11:18:28;;;;;;;12.65;5.90;;;7.70;99.90;;;;;;5071666;28;20024;-73
2022/11/17 11:21:08;;;;;;;7.18;4.38;;;7.70;99.90;;;;;;5074695;28;20495;-72
2022/11/17 11:24:09;;;;;;;5.50;3.72;;;7.80;99.90;;;;;;5074463;28;20043;-73
2022/11/17 11:27:14;;;;;;;5.72;3.95;;;7.70;99.90;;;;;;5073583;28;20035;-72
2022/11/17 11:30:09;;;;;;;17.90;7.88;;;7.70;99.90;;;;;;5056587;28;20454;-74
2022/11/17 11:32:50;;;;;;;6.03;3.67;;;7.70;99.90;;;;;;5074047;28;20123;-73
2022/11/17 11:35:49;;;;;;;7.05;3.70;;;7.70;99.90;;;;;;5056129;28;20036;-73
2022/11/17 11:38:39;;;;;;;4.88;3.22;;;7.80;99.90;;;;;;5073486;28;20110;-73
2022/11/17 11:41:10;;;;;;;6.43;3.03;;;7.80;99.90;;;;;;5056161;28;20485;-73
2022/11/17 11:44:00;;;;;;;5.60;2.92;;;7.80;99.90;;;;;;5073309;28;20076;-74
2022/11/17 11:46:58;;;;;;;6.78;4.18;;;7.90;99.90;;;;;;5073630;28;20529;-72
2022/11/17 11:49:31;;;;;;;18.08;8.63;;;7.80;99.90;;;;;;5072512;28;20116;-74
2022/11/17 11:51:59;;;;;;;12.90;6.97;;;7.80;99.90;;;;;;5073579;28;20451;-74
2022/11/17 11:54:28;;;;;;;127.50;63.85;;;7.90;99.90;;;;;;5055712;28;20039;-72
2022/11/17 11:56:54;;;;;;;15.63;9.30;;;7.90;99.90;;;;;;5074127;28;20241;-72
2022/11/17 11:59:40;;;;;;;4.82;2.90;;;7.90;99.90;;;;;;5073258;28;20538;-73
2022/11/17 12:02:13;;;;;;;17.75;9.82;;;7.90;99.90;;;;;;5055528;28;20033;-73
2022/11/17 12:04:57;;;;;;;9.20;4.90;;;7.90;99.90;;;;;;5055588;28;20041;-72
2022/11/17 12:07:32;;;;;;;5.72;3.25;;;7.90;99.90;;;;;;5055565;28;20418;-73
2022/11/17 12:09:58;;;;;;;5.93;3.28;;;8.00;99.90;;;;;;5072684;28;20056;-73
2022/11/17 12:12:32;;;;;;;4.13;2.65;;;7.90;99.90;;;;;;5055774;28;20474;-74
2022/11/17 12:15:11;;;;;;;6.07;3.42;;;8.00;99.90;;;;;;5073256;28;20039;-73
2022/11/17 12:18:03;;;;;;;8.52;3.85;;;8.00;99.90;;;;;;5055081;28;20353;-71
2022/11/17 12:20:39;;;;;;;5.45;3.63;;;8.00;99.90;;;;;;5073053;28;20031;-73
2022/11/17 12:23:28;;;;;;;3.47;2.88;;;8.00;99.90;;;;;;5054678;28;20035;-73
2022/11/17 12:25:56;;;;;;;7.63;4.03;;;8.00;99.90;;;;;;5072626;28;20049;-73
2022/11/17 12:28:35;;;;;;;6.47;4.20;;;8.00;99.90;;;;;;5072733;28;20037;-71
2022/11/17 12:31:08;;;;;;;6.45;3.35;;;8.10;99.90;;;;;;5072606;28;20340;-74
2022/11/17 12:33:52;;;;;;;6.18;3.47;;;8.00;99.90;;;;;;5073354;28;20055;-74
2022/11/17 12:36:24;;;;;;;6.03;2.90;;;8.10;99.90;;;;;;5073002;28;20458;-71
2022/11/17 12:38:50;;;;;;;4.28;3.00;;;8.20;99.90;;;;;;5073376;28;20048;-74
2022/11/17 12:41:47;;;;;;;4.93;3.20;;;8.20;99.90;;;;;;5072698;28;20035;-74
2022/11/17 12:44:37;;;;;;;4.38;2.83;;;8.20;99.90;;;;;;5032597;28;20061;-74
2022/11/17 12:47:12;;;;;;;4.68;3.15;;;8.30;99.90;;;;;;5034014;28;20410;-73
2022/11/17 12:49:58;;;;;;;4.38;2.95;;;8.20;99.90;;;;;;5032407;28;20095;-74
2022/11/17 12:52:53;;;;;;;5.15;2.60;;;8.20;99.90;;;;;;5033414;28;20022;-73
2022/11/17 12:55:33;;;;;;;4.82;2.70;;;8.20;99.90;;;;;;5032914;28;20460;-72
2022/11/17 12:58:23;;;;;;;5.75;2.75;;;8.20;99.90;;;;;;5032363;28;20418;-74
2022/11/17 13:01:19;;;;;;;6.18;2.67;;;8.20;99.90;;;;;;5032138;28;20026;-73
2022/11/17 13:04:10;;;;;;;5.40;2.95;;;8.10;99.90;;;;;;5032096;28;20477;-73
2022/11/17 13:06:35;;;;;;;5.40;3.17;;;8.30;99.90;;;;;;5032005;28;20036;-73
2022/11/17 13:09:07;;;;;;;4.63;2.42;;;8.20;99.90;;;;;;5032348;28;20026;-74
2022/11/17 13:11:34;;;;;;;3.95;2.20;;;8.20;99.90;;;;;;5047455;28;20034;-74
2022/11/17 13:14:26;;;;;;;3.58;2.75;;;8.10;99.90;;;;;;5030808;28;20104;-74
2022/11/17 13:16:52;;;;;;;3.95;2.50;;;8.20;99.90;;;;;;5028735;28;20044;-72
2022/11/17 13:19:40;;;;;;;4.18;2.50;;;8.20;99.90;;;;;;5047539;28;20463;-72
2022/11/17 13:22:14;;;;;;;;;;;8.20;99.90;;;;;;5031166;28;20037;-72
2022/11/17 13:24:43;;;;;;;6.40;2.80;;;8.30;99.90;;;;;;5047225;28;19911;-72
2022/11/17 13:27:27;;;;;;;5.85;3.63;;;8.30;99.90;;;;;;5031116;28;20021;-72
2022/11/17 13:30:26;;;;;;;15.70;5.72;;;8.30;99.90;;;;;;5031949;28;20112;-75
2022/11/17 13:32:54;;;;;;;7.88;2.60;;;8.30;99.90;;;;;;5031504;28;20034;-73
2022/11/17 13:35:24;;;;;;;12.30;5.80;;;8.40;99.90;;;;;;5031605;28;20472;-73
2022/11/17 13:38:22;;;;;;;13.13;7.10;;;8.40;99.90;;;;;;5030652;28;20044;-74
2022/11/17 13:40:52;;;;;;;4.45;2.85;;;8.40;99.90;;;;;;5031285;28;20040;-73
2022/11/17 13:43:20;;;;;;;7.22;4.07;;;8.40;99.90;;;;;;5056487;28;20372;-72
2022/11/17 13:45:51;;;;;;;6.07;2.80;;;8.50;99.90;;;;;;5071470;28;20033;-72